CheckWX is a tool to help pilots better visualize weather data.  It is not intended as a substitute for an official pre-flight weather briefing.

22:13:28 UTC

TJNR METAR
Roosevelt Roads Naval Station (Ofstie Field) Airport
Roosevelt Roads, Puerto Rico, USA
Current

20 mins ago

TJNR 222153Z AUTO 35005KT 10SM CLR 27/24 A2991 RMK AO2 SLP128 T02670239
Observed
Oct-22 @ 21:53 UTC
Wind
  • 350° at 5 KTS
Visibility
10 SM
Flight Rules
VFR
Cloud Levels
  • Clear skies
Temperature
27°C / 81°F
Dewpoint
24°C / 75°F
Heat Index
31°C / 87°F
Humidity
84%
Altimeter
29.91" Hg
Pressure
1012.92 hPa
Previous

45 mins ago

TJNR 222128Z AUTO 35004KT 10SM FEW003 27/24 A2990 RMK AO2 T02720239
Observed
Oct-22 @ 21:28 UTC
Wind
  • 350° at 4 KTS
Visibility
10 SM
Flight Rules
VFR
Cloud Levels
  • Few at 300' AGL
Temperature
27°C / 81°F
Dewpoint
24°C / 75°F
Heat Index
31°C / 87°F
Humidity
84%
Altimeter
29.9" Hg
Pressure
1012.52 hPa
Previous

1 hour ago

TJNR 222053Z AUTO 04003KT 10SM CLR 28/24 A2990 RMK AO2 SLP125 60000 T02830239 55010
Observed
Oct-22 @ 20:53 UTC
Wind
  • 040° at 3 KTS
Visibility
10 SM
Flight Rules
VFR
Cloud Levels
  • Clear skies
Temperature
28°C / 82°F
Dewpoint
24°C / 75°F
Heat Index
32°C / 89°F
Humidity
79%
Altimeter
29.9" Hg
Pressure
1012.52 hPa